createdAt,value
2018-08-24T00:02:22.535Z,24.50
2018-08-24T00:04:50.104Z,24.40
2018-08-24T00:07:17.953Z,24.40
2018-08-24T00:09:51.416Z,24.40
2018-08-24T00:12:21.168Z,24.40
2018-08-24T00:14:49.128Z,24.40
2018-08-24T00:17:25.074Z,24.30
2018-08-24T00:19:52.756Z,24.30
2018-08-24T00:22:20.775Z,24.30
2018-08-24T00:24:48.873Z,24.30
2018-08-24T00:27:16.963Z,24.20
2018-08-24T00:29:44.989Z,24.20
2018-08-24T00:32:12.703Z,24.20
2018-08-24T00:34:41.026Z,24.10
2018-08-24T00:37:08.822Z,24.10
2018-08-24T00:39:37.709Z,24.10
2018-08-24T00:42:05.510Z,24.10
2018-08-24T00:44:34.029Z,24.10
2018-08-24T00:47:02.086Z,24.00
2018-08-24T00:49:30.412Z,24.10
2018-08-24T00:51:58.384Z,24.10
2018-08-24T00:54:26.176Z,24.10
2018-08-24T00:56:54.473Z,23.90
2018-08-24T00:59:22.744Z,23.90
2018-08-24T01:01:50.570Z,23.90
2018-08-24T01:04:25.303Z,23.90
2018-08-24T01:06:54.374Z,23.90
2018-08-24T01:09:22.523Z,24.00
2018-08-24T01:11:56.240Z,23.90
2018-08-24T01:14:24.295Z,23.80
2018-08-24T01:16:58.013Z,23.80
2018-08-24T01:19:25.719Z,23.80
2018-08-24T01:21:53.374Z,23.80
2018-08-24T01:24:25.791Z,23.80
2018-08-24T01:26:59.194Z,23.80
2018-08-24T01:29:27.181Z,23.60
2018-08-24T01:31:54.923Z,23.70
2018-08-24T01:34:22.819Z,23.60
2018-08-24T01:36:50.769Z,23.60
2018-08-24T01:39:18.473Z,23.50
2018-08-24T01:41:55.850Z,23.40
2018-08-24T01:44:24.632Z,23.50
2018-08-24T01:46:52.804Z,23.50
2018-08-24T01:49:21.109Z,23.40
2018-08-24T01:51:49.127Z,23.50
2018-08-24T01:54:16.929Z,23.40
2018-08-24T01:56:44.904Z,23.50
2018-08-24T01:59:13.503Z,23.40
2018-08-24T02:01:41.884Z,23.50
2018-08-24T02:04:09.927Z,23.50
2018-08-24T02:06:37.639Z,23.40
2018-08-24T02:09:11.682Z,23.40
2018-08-24T02:11:39.754Z,23.30
2018-08-24T02:14:10.241Z,23.40
2018-08-24T02:16:39.590Z,23.40
2018-08-24T02:19:13.676Z,23.40
2018-08-24T02:21:48.212Z,23.40
2018-08-24T02:24:15.856Z,23.40
2018-08-24T02:26:46.263Z,23.40
2018-08-24T02:29:14.253Z,23.40
2018-08-24T02:31:47.504Z,23.40
2018-08-24T02:34:15.195Z,23.40
2018-08-24T02:36:43.969Z,23.30
2018-08-24T02:39:15.043Z,23.40
2018-08-24T02:41:43.448Z,23.30
2018-08-24T02:44:11.660Z,23.30
2018-08-24T02:46:40.277Z,23.30
2018-08-24T02:49:08.679Z,23.30
2018-08-24T02:51:38.399Z,23.30
2018-08-24T02:54:06.019Z,23.30
2018-08-24T02:56:33.939Z,23.30
2018-08-24T02:59:02.319Z,23.20
2018-08-24T03:01:30.176Z,23.20
2018-08-24T03:03:58.565Z,23.20
2018-08-24T03:06:26.352Z,23.20
2018-08-24T03:08:54.099Z,23.10
2018-08-24T03:11:22.215Z,23.00
2018-08-24T03:13:50.224Z,23.00
2018-08-24T03:16:18.262Z,23.10
2018-08-24T03:18:46.614Z,23.00
2018-08-24T03:21:14.754Z,23.00
2018-08-24T03:23:42.722Z,23.00
2018-08-24T03:26:10.908Z,22.90
2018-08-24T03:28:38.624Z,22.90
2018-08-24T03:31:06.443Z,22.90
2018-08-24T03:33:34.476Z,22.90
2018-08-24T03:36:02.548Z,22.90
2018-08-24T03:38:30.451Z,22.90
2018-08-24T03:40:58.502Z,22.80
2018-08-24T03:43:26.354Z,22.80
2018-08-24T03:45:54.088Z,22.70
2018-08-24T03:48:24.559Z,22.80
2018-08-24T03:50:52.392Z,22.70
2018-08-24T03:53:21.437Z,22.70
2018-08-24T03:55:49.177Z,22.80
2018-08-24T03:58:16.888Z,22.70
2018-08-24T04:00:44.579Z,22.70
2018-08-24T04:03:12.321Z,22.60
2018-08-24T04:05:40.794Z,22.70
2018-08-24T04:08:08.570Z,22.60
2018-08-24T04:10:36.285Z,22.50
2018-08-24T04:13:04.148Z,22.40
2018-08-24T04:15:32.141Z,22.40
2018-08-24T04:18:00.108Z,22.40
2018-08-24T04:20:28.010Z,22.40
2018-08-24T04:22:55.812Z,22.40
2018-08-24T04:25:23.651Z,22.40
2018-08-24T04:27:51.369Z,22.40
2018-08-24T04:30:19.208Z,22.30
2018-08-24T04:32:47.211Z,22.30
2018-08-24T04:35:14.962Z,22.40
2018-08-24T04:37:42.772Z,22.40
2018-08-24T04:40:10.914Z,22.30
2018-08-24T04:42:50.514Z,22.30
2018-08-24T04:45:18.484Z,22.30
2018-08-24T04:47:46.257Z,22.30
2018-08-24T04:50:15.829Z,22.30
2018-08-24T04:52:44.054Z,22.30
2018-08-24T04:55:12.031Z,22.30
2018-08-24T04:57:40.356Z,22.30
2018-08-24T05:00:09.388Z,22.20
2018-08-24T05:02:39.205Z,22.20
2018-08-24T05:05:09.065Z,22.20
2018-08-24T05:07:37.620Z,22.20
2018-08-24T05:10:06.440Z,22.20
2018-08-24T05:12:34.835Z,22.20
2018-08-24T05:15:03.136Z,22.30
2018-08-24T05:17:31.207Z,22.20
2018-08-24T05:19:59.136Z,22.30
2018-08-24T05:22:26.777Z,22.10
2018-08-24T05:24:56.010Z,22.10
2018-08-24T05:27:24.722Z,22.00
2018-08-24T05:29:52.481Z,22.00
2018-08-24T05:32:21.656Z,22.00
2018-08-24T05:34:49.580Z,22.10
2018-08-24T05:37:17.942Z,22.00
2018-08-24T05:39:45.890Z,21.90
2018-08-24T05:42:14.017Z,21.90
2018-08-24T05:44:41.731Z,21.90
2018-08-24T05:47:10.767Z,21.90
2018-08-24T05:49:38.500Z,21.90
2018-08-24T05:52:06.505Z,21.80
2018-08-24T05:54:34.855Z,21.80
2018-08-24T05:57:03.565Z,21.80
2018-08-24T05:59:31.414Z,21.80
2018-08-24T06:01:59.620Z,21.80
2018-08-24T06:04:27.383Z,21.80
2018-08-24T06:06:55.622Z,21.80
2018-08-24T06:09:23.349Z,21.70
2018-08-24T06:11:51.029Z,21.70
2018-08-24T06:14:18.693Z,21.60
2018-08-24T06:17:52.276Z,21.60
2018-08-24T06:20:25.257Z,21.70
2018-08-24T06:22:53.372Z,21.70
2018-08-24T06:25:21.065Z,21.70
2018-08-24T06:27:48.688Z,21.70
2018-08-24T06:30:16.336Z,21.70
2018-08-24T06:32:44.140Z,21.80
2018-08-24T06:35:13.073Z,21.80
2018-08-24T06:37:40.959Z,21.80
2018-08-24T06:40:08.894Z,21.90
2018-08-24T06:42:36.538Z,21.90
2018-08-24T06:45:05.255Z,21.90
2018-08-24T06:47:34.459Z,21.90
2018-08-24T06:50:02.549Z,21.90
2018-08-24T06:52:30.480Z,22.00
2018-08-24T06:54:59.686Z,22.00
2018-08-24T06:57:35.873Z,21.80
2018-08-24T07:00:03.663Z,21.80
2018-08-24T07:02:32.238Z,21.80
2018-08-24T07:05:03.213Z,21.90
2018-08-24T07:07:30.998Z,21.90
2018-08-24T07:09:58.632Z,22.00
2018-08-24T07:12:28.788Z,22.00
2018-08-24T07:14:57.747Z,22.00
2018-08-24T07:17:44.398Z,21.90
2018-08-24T07:20:22.050Z,21.80
2018-08-24T07:22:50.357Z,21.70
2018-08-24T07:25:18.023Z,21.70
2018-08-24T07:27:46.553Z,21.70
2018-08-24T07:30:14.193Z,21.80
2018-08-24T07:32:41.989Z,21.70
2018-08-24T07:35:09.874Z,21.50
2018-08-24T07:37:37.483Z,21.50
2018-08-24T07:43:02.921Z,21.50
2018-08-24T07:45:36.022Z,21.60
2018-08-24T07:48:04.739Z,21.50
2018-08-24T07:50:32.379Z,21.50
2018-08-24T07:53:02.354Z,21.50
2018-08-24T07:55:31.983Z,21.60
2018-08-24T07:57:59.886Z,21.50
2018-08-24T08:00:29.862Z,21.50
2018-08-24T08:02:57.890Z,21.40
2018-08-24T08:05:25.609Z,21.50
2018-08-24T08:07:56.755Z,21.50
2018-08-24T08:10:29.379Z,21.50
2018-08-24T08:12:58.387Z,21.40
2018-08-24T08:15:26.219Z,21.50
2018-08-24T08:17:53.835Z,21.50
2018-08-24T08:20:23.548Z,21.50
2018-08-24T08:22:51.840Z,21.50
2018-08-24T08:25:19.678Z,21.50
2018-08-24T08:27:47.451Z,21.50
2018-08-24T08:30:15.271Z,21.60
2018-08-24T08:32:43.260Z,21.50
2018-08-24T08:35:11.024Z,21.40
2018-08-24T08:37:38.732Z,21.60
2018-08-24T08:40:06.445Z,21.70
2018-08-24T08:42:34.302Z,21.60
2018-08-24T08:45:02.167Z,21.70
2018-08-24T08:47:29.923Z,21.70
2018-08-24T08:49:57.653Z,21.50
2018-08-24T08:52:25.392Z,21.60
2018-08-24T08:54:53.063Z,21.70
2018-08-24T08:57:20.804Z,21.80
2018-08-24T08:59:56.063Z,21.80
2018-08-24T09:02:23.744Z,21.90
2018-08-24T09:04:52.025Z,21.90
2018-08-24T09:07:20.863Z,21.90
2018-08-24T09:09:48.628Z,21.90
2018-08-24T09:12:17.652Z,21.80
2018-08-24T09:14:46.116Z,21.80
2018-08-24T09:17:19.520Z,21.60
2018-08-24T09:19:52.882Z,21.70
2018-08-24T09:22:26.218Z,21.40
2018-08-24T09:24:59.651Z,21.30
2018-08-24T09:27:30.596Z,21.30
2018-08-24T09:30:04.684Z,21.20
2018-08-24T09:32:32.782Z,21.10
2018-08-24T09:35:00.385Z,21.10
2018-08-24T09:37:35.671Z,20.80
2018-08-24T09:40:04.852Z,20.70
2018-08-24T09:42:33.101Z,20.60
2018-08-24T09:45:00.697Z,20.60
2018-08-24T09:47:33.845Z,20.40
2018-08-24T09:50:07.115Z,20.60
2018-08-24T09:52:34.822Z,20.60
2018-08-24T09:55:02.585Z,20.50
2018-08-24T09:57:30.719Z,20.30
2018-08-24T09:59:58.578Z,20.20
2018-08-24T10:02:31.866Z,20.40
2018-08-24T10:06:02.521Z,20.40
2018-08-24T10:08:34.724Z,20.60
2018-08-24T10:11:03.129Z,20.40
2018-08-24T10:13:30.760Z,20.40
2018-08-24T10:15:58.446Z,20.40
2018-08-24T10:18:26.091Z,20.40
2018-08-24T10:20:53.663Z,20.30
2018-08-24T10:23:21.222Z,20.40
2018-08-24T10:25:48.831Z,20.40
2018-08-24T10:28:16.487Z,20.70
2018-08-24T10:30:44.419Z,20.80
2018-08-24T10:33:12.080Z,20.80
2018-08-24T10:35:39.715Z,21.00
2018-08-24T10:38:07.415Z,20.70
2018-08-24T10:40:34.934Z,20.80
2018-08-24T10:43:02.587Z,20.80
2018-08-24T10:45:30.306Z,21.00
2018-08-24T10:47:58.018Z,21.00
2018-08-24T10:50:25.726Z,20.90
2018-08-24T10:52:53.389Z,20.90
2018-08-24T10:55:21.124Z,20.80
2018-08-24T10:57:48.787Z,20.90
2018-08-24T11:00:16.455Z,21.00
2018-08-24T11:02:44.176Z,20.90
2018-08-24T11:05:12.006Z,21.00
2018-08-24T11:07:39.792Z,21.00
2018-08-24T11:10:07.389Z,20.90
2018-08-24T11:12:35.442Z,20.90
2018-08-24T11:15:05.309Z,21.00
2018-08-24T11:17:38.600Z,21.00
2018-08-24T11:20:06.260Z,20.90
2018-08-24T11:22:33.928Z,21.00
2018-08-24T11:25:01.803Z,21.00
2018-08-24T11:27:29.428Z,21.10
2018-08-24T11:29:57.188Z,21.10
2018-08-24T11:32:26.811Z,21.10
2018-08-24T11:34:54.858Z,21.10
2018-08-24T11:37:22.855Z,21.10
2018-08-24T11:39:50.732Z,21.20
2018-08-24T11:42:18.826Z,21.30
2018-08-24T11:44:46.479Z,21.30
2018-08-24T11:47:18.583Z,21.40
2018-08-24T11:49:48.604Z,21.40
2018-08-24T11:52:16.487Z,21.50
2018-08-24T11:54:44.251Z,21.60
2018-08-24T11:57:11.980Z,21.70
2018-08-24T11:59:39.712Z,21.70
2018-08-24T12:02:07.207Z,21.80
2018-08-24T12:04:35.197Z,21.90
2018-08-24T12:07:03.047Z,22.00
2018-08-24T12:09:31.072Z,22.10
2018-08-24T12:11:59.114Z,22.20
2018-08-24T12:14:28.034Z,22.30
2018-08-24T12:16:55.716Z,22.30
2018-08-24T12:19:23.395Z,22.40
2018-08-24T12:21:51.323Z,22.40
2018-08-24T12:24:19.721Z,22.70
2018-08-24T12:26:47.375Z,22.70
2018-08-24T12:29:15.148Z,22.80
2018-08-24T12:31:43.232Z,23.00
2018-08-24T12:34:11.035Z,23.20
2018-08-24T12:36:39.891Z,23.10
2018-08-24T12:39:09.251Z,23.20
2018-08-24T12:41:37.054Z,23.50
2018-08-24T12:44:05.027Z,23.50
2018-08-24T12:46:32.692Z,23.60
2018-08-24T12:49:00.349Z,23.60
2018-08-24T12:51:28.782Z,23.60
2018-08-24T12:53:57.052Z,23.70
2018-08-24T12:56:24.679Z,23.70
2018-08-24T12:58:52.783Z,23.60
2018-08-24T13:01:22.276Z,23.60
2018-08-24T13:03:51.016Z,23.60
2018-08-24T13:06:19.607Z,23.50
2018-08-24T13:08:47.636Z,23.40
2018-08-24T13:11:15.359Z,23.40
2018-08-24T13:13:44.048Z,23.40
2018-08-24T13:16:11.756Z,23.40
2018-08-24T13:18:42.011Z,23.50
2018-08-24T13:21:10.226Z,23.50
2018-08-24T13:23:37.916Z,23.40
2018-08-24T13:26:06.097Z,23.50
2018-08-24T13:28:33.783Z,23.50
2018-08-24T13:31:01.505Z,23.40
2018-08-24T13:33:29.699Z,23.50
2018-08-24T13:35:57.316Z,23.40
2018-08-24T13:38:24.967Z,23.40
2018-08-24T13:40:52.866Z,23.40
2018-08-24T13:43:20.480Z,23.50
2018-08-24T13:45:48.247Z,23.60
2018-08-24T13:48:16.336Z,23.50
2018-08-24T13:50:44.489Z,23.50
2018-08-24T13:53:12.858Z,23.50
2018-08-24T13:55:40.901Z,23.60
2018-08-24T13:58:08.988Z,23.70
2018-08-24T14:00:36.767Z,23.70
2018-08-24T14:03:07.926Z,23.50
2018-08-24T14:05:35.750Z,23.50
2018-08-24T14:08:03.476Z,23.30
2018-08-24T14:10:31.199Z,23.40
2018-08-24T14:12:58.835Z,23.40
2018-08-24T14:15:28.275Z,23.40
2018-08-24T14:17:55.918Z,23.40
2018-08-24T14:20:24.895Z,23.40
2018-08-24T14:22:52.690Z,23.60
2018-08-24T14:25:20.514Z,23.60
2018-08-24T14:27:48.380Z,23.60
2018-08-24T14:30:22.304Z,23.70
2018-08-24T14:32:49.987Z,23.70
2018-08-24T14:35:17.645Z,23.50
2018-08-24T14:37:45.321Z,23.70
2018-08-24T14:40:33.847Z,23.60
2018-08-24T14:43:01.723Z,23.60
2018-08-24T14:45:29.325Z,23.60
2018-08-24T14:47:57.504Z,23.80
2018-08-24T14:50:25.447Z,23.80
2018-08-24T14:52:53.169Z,23.80
2018-08-24T14:55:21.066Z,23.80
2018-08-24T14:57:49.625Z,23.90
2018-08-24T15:00:17.842Z,23.90
2018-08-24T15:02:46.371Z,23.90
2018-08-24T15:05:14.150Z,23.90
2018-08-24T15:07:41.834Z,23.90
2018-08-24T15:10:10.716Z,23.80
2018-08-24T15:12:39.541Z,23.80
2018-08-24T15:15:07.627Z,23.80
2018-08-24T15:17:36.318Z,23.90
2018-08-24T15:20:05.636Z,23.80
2018-08-24T15:22:33.640Z,23.70
2018-08-24T15:25:02.711Z,23.70
2018-08-24T15:27:30.339Z,23.70
2018-08-24T15:29:58.448Z,23.60
2018-08-24T15:32:26.515Z,23.60
2018-08-24T15:34:54.177Z,23.50
2018-08-24T15:37:21.844Z,23.60
2018-08-24T15:39:49.597Z,23.50
2018-08-24T15:42:17.496Z,23.60
2018-08-24T15:44:45.281Z,23.70
2018-08-24T15:47:13.103Z,23.70
2018-08-24T15:49:40.750Z,23.60
2018-08-24T15:52:08.324Z,23.60
2018-08-24T15:54:36.137Z,23.70
2018-08-24T15:57:03.923Z,23.70
2018-08-24T15:59:31.958Z,23.60
2018-08-24T16:01:59.800Z,23.50
2018-08-24T16:04:27.459Z,23.60
2018-08-24T16:06:55.670Z,23.60
2018-08-24T16:09:23.833Z,23.50
2018-08-24T16:11:52.678Z,23.50
2018-08-24T16:14:20.459Z,23.50
2018-08-24T16:16:48.024Z,23.40
2018-08-24T16:19:15.765Z,23.50
2018-08-24T16:21:43.415Z,23.40
2018-08-24T16:24:11.459Z,23.50
2018-08-24T16:26:39.405Z,23.40
2018-08-24T16:29:07.414Z,23.30
2018-08-24T16:31:35.078Z,23.30
2018-08-24T16:34:02.906Z,23.40
2018-08-24T16:36:31.429Z,23.40
2018-08-24T16:38:59.556Z,23.30
2018-08-24T16:41:27.314Z,23.40
2018-08-24T16:43:54.912Z,23.40
2018-08-24T16:46:23.335Z,23.40
2018-08-24T16:48:51.189Z,23.40
2018-08-24T16:51:19.683Z,23.30
2018-08-24T16:53:47.385Z,23.20
2018-08-24T16:56:16.263Z,23.30
2018-08-24T16:58:44.263Z,23.10
2018-08-24T17:01:12.023Z,23.20
2018-08-24T17:03:39.875Z,23.20
2018-08-24T17:06:07.736Z,23.20
2018-08-24T17:08:35.486Z,23.20
2018-08-24T17:11:03.288Z,23.30
2018-08-24T17:13:31.551Z,23.30
2018-08-24T17:16:00.189Z,23.20
2018-08-24T17:18:27.932Z,23.00
2018-08-24T17:20:55.654Z,23.00
2018-08-24T17:23:23.551Z,23.00
2018-08-24T17:25:51.351Z,23.00
2018-08-24T17:28:19.053Z,23.00
2018-08-24T17:30:47.897Z,23.10
2018-08-24T17:33:15.663Z,23.00
2018-08-24T17:35:43.489Z,23.00
2018-08-24T17:38:11.131Z,22.90
2018-08-24T17:40:39.664Z,22.70
2018-08-24T17:43:08.149Z,22.70
2018-08-24T17:45:37.692Z,22.80
2018-08-24T17:48:05.689Z,22.80
2018-08-24T17:50:34.000Z,22.80
2018-08-24T17:53:02.887Z,22.80
2018-08-24T17:55:31.046Z,22.80
2018-08-24T17:57:58.976Z,22.80
2018-08-24T18:00:26.753Z,22.80
2018-08-24T18:02:54.485Z,22.80
2018-08-24T18:05:22.214Z,22.80
2018-08-24T18:07:49.885Z,22.80
2018-08-24T18:10:17.500Z,22.70
2018-08-24T18:12:45.644Z,22.70
2018-08-24T18:15:27.178Z,22.70
2018-08-24T18:17:54.923Z,22.70
2018-08-24T18:20:25.083Z,22.70
2018-08-24T18:22:52.983Z,22.70
2018-08-24T18:25:20.843Z,22.70
2018-08-24T18:27:48.557Z,22.70
2018-08-24T18:30:16.642Z,22.70
2018-08-24T18:32:44.593Z,22.70
2018-08-24T18:35:14.776Z,22.70
2018-08-24T18:37:42.911Z,22.70
2018-08-24T18:40:10.765Z,22.70
2018-08-24T18:42:38.518Z,22.70
2018-08-24T18:45:06.171Z,22.70
2018-08-24T18:47:33.758Z,22.80
2018-08-24T18:50:01.389Z,22.80
2018-08-24T18:52:29.003Z,22.80
2018-08-24T18:54:56.836Z,22.70
2018-08-24T18:57:24.508Z,22.70
2018-08-24T18:59:52.174Z,22.70
2018-08-24T19:02:19.866Z,22.70
2018-08-24T19:04:49.468Z,22.70
2018-08-24T19:07:17.140Z,22.70
2018-08-24T19:09:44.963Z,22.70
2018-08-24T19:12:18.252Z,22.70
2018-08-24T19:14:45.983Z,22.70
2018-08-24T19:17:19.470Z,22.70
2018-08-24T19:19:52.730Z,22.70
2018-08-24T19:22:20.989Z,22.60
2018-08-24T19:24:48.691Z,22.60
2018-08-24T19:27:17.563Z,22.50
2018-08-24T19:29:51.014Z,22.40
2018-08-24T19:32:19.976Z,22.40
2018-08-24T19:34:47.591Z,22.40
2018-08-24T19:37:15.428Z,22.30
2018-08-24T19:39:48.080Z,22.20
2018-08-24T19:42:21.468Z,22.10
2018-08-24T19:44:49.850Z,22.00
2018-08-24T19:47:24.299Z,22.00
2018-08-24T19:49:52.662Z,22.00
2018-08-24T19:52:20.520Z,22.00
2018-08-24T19:54:48.346Z,22.00
2018-08-24T19:57:21.767Z,22.00
2018-08-24T19:59:49.492Z,22.00
2018-08-24T20:04:58.029Z,22.00
2018-08-24T20:07:32.463Z,22.00
2018-08-24T20:10:05.280Z,22.10
2018-08-24T20:12:33.053Z,22.00
2018-08-24T20:15:06.311Z,22.10
2018-08-24T20:17:34.097Z,22.10
2018-08-24T20:20:02.284Z,22.10
2018-08-24T20:22:31.339Z,22.10
2018-08-24T20:24:59.444Z,22.10
2018-08-24T20:27:28.224Z,22.10
2018-08-24T20:29:55.885Z,22.10
2018-08-24T20:32:23.649Z,22.10
2018-08-24T20:34:54.697Z,22.00
2018-08-24T20:37:23.041Z,22.00
2018-08-24T20:39:52.953Z,22.00
2018-08-24T20:42:20.719Z,22.00
2018-08-24T20:44:49.040Z,22.00
2018-08-24T20:47:16.844Z,22.00
2018-08-24T20:49:44.527Z,22.00
2018-08-24T20:52:12.179Z,22.00
2018-08-24T20:54:40.017Z,21.90
2018-08-24T20:57:07.679Z,21.80
2018-08-24T20:59:35.494Z,21.80
2018-08-24T21:02:03.142Z,21.70
2018-08-24T21:04:30.879Z,21.70
2018-08-24T21:06:58.710Z,21.70
2018-08-24T21:09:26.850Z,21.60
2018-08-24T21:11:54.705Z,21.50
2018-08-24T21:14:22.627Z,21.50
2018-08-24T21:16:51.022Z,21.50
2018-08-24T21:19:18.928Z,21.60
2018-08-24T21:21:46.611Z,21.50
2018-08-24T21:24:14.345Z,21.60
2018-08-24T21:26:42.024Z,21.60
2018-08-24T21:29:10.069Z,21.60
2018-08-24T21:31:37.693Z,21.60
2018-08-24T21:34:05.352Z,21.60
2018-08-24T21:36:32.987Z,21.70
2018-08-24T21:39:00.683Z,21.70
2018-08-24T21:41:41.530Z,21.70
2018-08-24T21:44:09.741Z,21.70
2018-08-24T21:46:37.735Z,21.60
2018-08-24T21:49:06.024Z,21.60
2018-08-24T21:51:34.568Z,21.50
2018-08-24T21:54:02.515Z,21.50
2018-08-24T21:56:30.788Z,21.50
2018-08-24T21:58:58.809Z,21.40
2018-08-24T22:01:27.058Z,21.40
2018-08-24T22:03:55.042Z,21.40
2018-08-24T22:06:22.820Z,21.50
2018-08-24T22:08:52.573Z,21.50
2018-08-24T22:11:20.275Z,21.50
2018-08-24T22:13:47.994Z,21.50
2018-08-24T22:16:15.680Z,21.40
2018-08-24T22:18:43.550Z,21.50
2018-08-24T22:21:11.209Z,21.50
2018-08-24T22:23:38.912Z,21.50
2018-08-24T22:26:06.806Z,21.50
2018-08-24T22:28:35.057Z,21.50
2018-08-24T22:31:02.976Z,21.30
2018-08-24T22:33:30.711Z,21.30
2018-08-24T22:35:58.476Z,21.40
2018-08-24T22:38:26.323Z,21.30
2018-08-24T22:40:53.986Z,21.30
2018-08-24T22:43:27.497Z,21.30
2018-08-24T22:45:56.914Z,21.30
2018-08-24T22:48:24.664Z,21.20
2018-08-24T22:50:52.956Z,21.20
2018-08-24T22:53:24.724Z,21.10
2018-08-24T22:55:52.477Z,21.10
2018-08-24T22:58:20.524Z,21.10
2018-08-24T23:00:48.930Z,21.10
2018-08-24T23:03:18.045Z,21.10
2018-08-24T23:05:45.784Z,21.10
2018-08-24T23:08:14.067Z,21.00
2018-08-24T23:10:42.085Z,21.10
2018-08-24T23:13:09.954Z,21.10
2018-08-24T23:15:38.404Z,21.00
2018-08-24T23:18:07.076Z,21.00
2018-08-24T23:20:34.926Z,21.00
2018-08-24T23:23:04.491Z,21.00
2018-08-24T23:25:34.150Z,20.90
2018-08-24T23:28:02.448Z,20.90
2018-08-24T23:30:30.435Z,21.00
2018-08-24T23:32:58.693Z,20.90
2018-08-24T23:35:26.783Z,20.90
2018-08-24T23:37:55.698Z,20.90
2018-08-24T23:40:24.354Z,20.80
2018-08-24T23:42:52.954Z,20.90
2018-08-24T23:45:21.576Z,20.90
2018-08-24T23:47:49.507Z,20.90
2018-08-24T23:50:17.491Z,20.80
2018-08-24T23:55:21.021Z,20.70
2018-08-24T23:57:49.844Z,20.80
